sensor_id;sensor_type;location;lat;lon;timestamp;P1;durP1;ratioP1;P2;durP2;ratioP2
47912;SDS011;33676;51.006;17.180;2023-07-31T00:01:12;3.80;;;3.10;;
47912;SDS011;33676;51.006;17.180;2023-07-31T00:03:41;2.80;;;2.60;;
47912;SDS011;33676;51.006;17.180;2023-07-31T00:06:09;5.50;;;2.60;;
47912;SDS011;33676;51.006;17.180;2023-07-31T00:08:38;6.00;;;2.90;;
47912;SDS011;33676;51.006;17.180;2023-07-31T00:11:06;8.20;;;3.10;;
47912;SDS011;33676;51.006;17.180;2023-07-31T00:13:35;3.30;;;2.00;;
47912;SDS011;33676;51.006;17.180;2023-07-31T00:16:03;3.30;;;2.40;;
47912;SDS011;33676;51.006;17.180;2023-07-31T00:18:32;3.20;;;2.40;;
47912;SDS011;33676;51.006;17.180;2023-07-31T00:21:00;3.80;;;2.70;;
47912;SDS011;33676;51.006;17.180;2023-07-31T00:23:29;4.20;;;2.40;;
47912;SDS011;33676;51.006;17.180;2023-07-31T00:25:57;5.00;;;3.30;;
47912;SDS011;33676;51.006;17.180;2023-07-31T00:28:26;2.50;;;2.30;;
47912;SDS011;33676;51.006;17.180;2023-07-31T00:30:55;3.00;;;2.40;;
47912;SDS011;33676;51.006;17.180;2023-07-31T00:33:24;2.90;;;2.70;;
47912;SDS011;33676;51.006;17.180;2023-07-31T00:35:52;2.90;;;2.60;;
47912;SDS011;33676;51.006;17.180;2023-07-31T00:38:21;3.20;;;2.90;;
47912;SDS011;33676;51.006;17.180;2023-07-31T00:40:49;3.30;;;2.30;;
47912;SDS011;33676;51.006;17.180;2023-07-31T00:43:18;4.30;;;2.80;;
47912;SDS011;33676;51.006;17.180;2023-07-31T00:45:47;4.50;;;2.30;;
47912;SDS011;33676;51.006;17.180;2023-07-31T00:48:15;5.90;;;3.30;;
47912;SDS011;33676;51.006;17.180;2023-07-31T00:50:44;5.30;;;2.50;;
47912;SDS011;33676;51.006;17.180;2023-07-31T00:53:13;3.70;;;2.70;;
47912;SDS011;33676;51.006;17.180;2023-07-31T00:55:42;3.30;;;2.10;;
47912;SDS011;33676;51.006;17.180;2023-07-31T00:58:12;3.60;;;2.30;;
47912;SDS011;33676;51.006;17.180;2023-07-31T01:00:41;3.60;;;2.20;;
47912;SDS011;33676;51.006;17.180;2023-07-31T01:03:09;3.30;;;2.40;;
47912;SDS011;33676;51.006;17.180;2023-07-31T01:08:33;3.50;;;2.40;;
47912;SDS011;33676;51.006;17.180;2023-07-31T01:11:28;3.00;;;2.40;;
47912;SDS011;33676;51.006;17.180;2023-07-31T01:13:58;4.40;;;1.90;;
47912;SDS011;33676;51.006;17.180;2023-07-31T01:16:27;2.10;;;2.00;;
47912;SDS011;33676;51.006;17.180;2023-07-31T01:18:56;5.10;;;2.70;;
47912;SDS011;33676;51.006;17.180;2023-07-31T01:30:48;2.20;;;2.00;;
47912;SDS011;33676;51.006;17.180;2023-07-31T01:33:17;2.60;;;2.40;;
47912;SDS011;33676;51.006;17.180;2023-07-31T01:35:46;4.20;;;2.70;;
47912;SDS011;33676;51.006;17.180;2023-07-31T01:38:20;3.50;;;2.20;;
47912;SDS011;33676;51.006;17.180;2023-07-31T01:40:53;3.00;;;1.80;;
47912;SDS011;33676;51.006;17.180;2023-07-31T01:43:21;2.80;;;2.00;;
47912;SDS011;33676;51.006;17.180;2023-07-31T01:45:50;3.40;;;2.50;;
47912;SDS011;33676;51.006;17.180;2023-07-31T01:48:18;5.10;;;2.60;;
47912;SDS011;33676;51.006;17.180;2023-07-31T01:50:47;2.70;;;2.50;;
47912;SDS011;33676;51.006;17.180;2023-07-31T01:53:15;5.20;;;2.30;;
47912;SDS011;33676;51.006;17.180;2023-07-31T01:55:44;8.20;;;2.70;;
47912;SDS011;33676;51.006;17.180;2023-07-31T01:58:12;7.50;;;3.40;;
47912;SDS011;33676;51.006;17.180;2023-07-31T02:00:41;4.80;;;3.90;;
47912;SDS011;33676;51.006;17.180;2023-07-31T02:03:09;4.90;;;3.40;;
47912;SDS011;33676;51.006;17.180;2023-07-31T02:05:48;4.90;;;4.50;;
47912;SDS011;33676;51.006;17.180;2023-07-31T02:08:17;8.60;;;4.70;;
47912;SDS011;33676;51.006;17.180;2023-07-31T02:10:46;3.70;;;3.30;;
47912;SDS011;33676;51.006;17.180;2023-07-31T02:13:14;6.90;;;4.10;;
47912;SDS011;33676;51.006;17.180;2023-07-31T02:15:43;7.80;;;4.50;;
47912;SDS011;33676;51.006;17.180;2023-07-31T02:18:14;5.60;;;4.10;;
47912;SDS011;33676;51.006;17.180;2023-07-31T02:20:42;4.00;;;3.50;;
47912;SDS011;33676;51.006;17.180;2023-07-31T02:23:11;10.70;;;4.30;;
47912;SDS011;33676;51.006;17.180;2023-07-31T02:25:39;4.40;;;4.00;;
47912;SDS011;33676;51.006;17.180;2023-07-31T02:28:08;6.00;;;3.50;;
47912;SDS011;33676;51.006;17.180;2023-07-31T02:30:36;4.40;;;4.00;;
47912;SDS011;33676;51.006;17.180;2023-07-31T02:33:05;3.70;;;3.40;;
47912;SDS011;33676;51.006;17.180;2023-07-31T02:35:34;6.80;;;4.00;;
47912;SDS011;33676;51.006;17.180;2023-07-31T02:38:02;6.90;;;4.00;;
47912;SDS011;33676;51.006;17.180;2023-07-31T02:40:30;4.40;;;3.80;;
47912;SDS011;33676;51.006;17.180;2023-07-31T02:42:59;5.10;;;3.30;;
47912;SDS011;33676;51.006;17.180;2023-07-31T02:45:27;4.10;;;3.20;;
47912;SDS011;33676;51.006;17.180;2023-07-31T02:47:55;5.40;;;3.30;;
47912;SDS011;33676;51.006;17.180;2023-07-31T02:50:24;5.10;;;3.80;;
47912;SDS011;33676;51.006;17.180;2023-07-31T02:52:52;5.70;;;3.90;;
47912;SDS011;33676;51.006;17.180;2023-07-31T02:55:21;3.40;;;2.70;;
47912;SDS011;33676;51.006;17.180;2023-07-31T02:57:49;5.00;;;3.40;;
47912;SDS011;33676;51.006;17.180;2023-07-31T03:00:20;4.90;;;3.20;;
47912;SDS011;33676;51.006;17.180;2023-07-31T03:02:48;3.20;;;2.90;;
47912;SDS011;33676;51.006;17.180;2023-07-31T03:05:17;4.40;;;3.70;;
47912;SDS011;33676;51.006;17.180;2023-07-31T03:07:45;3.20;;;2.90;;
47912;SDS011;33676;51.006;17.180;2023-07-31T03:10:14;4.10;;;2.70;;
47912;SDS011;33676;51.006;17.180;2023-07-31T03:12:42;5.20;;;3.30;;
47912;SDS011;33676;51.006;17.180;2023-07-31T03:15:14;3.80;;;3.40;;
47912;SDS011;33676;51.006;17.180;2023-07-31T03:17:42;8.00;;;3.10;;
47912;SDS011;33676;51.006;17.180;2023-07-31T03:20:11;4.40;;;2.80;;
47912;SDS011;33676;51.006;17.180;2023-07-31T03:22:39;3.30;;;3.00;;
47912;SDS011;33676;51.006;17.180;2023-07-31T03:25:08;4.60;;;3.20;;
47912;SDS011;33676;51.006;17.180;2023-07-31T03:27:38;4.40;;;3.00;;
47912;SDS011;33676;51.006;17.180;2023-07-31T03:30:07;4.60;;;2.70;;
47912;SDS011;33676;51.006;17.180;2023-07-31T03:32:36;3.30;;;2.80;;
47912;SDS011;33676;51.006;17.180;2023-07-31T03:35:29;3.50;;;3.20;;
47912;SDS011;33676;51.006;17.180;2023-07-31T03:37:58;4.20;;;2.80;;
47912;SDS011;33676;51.006;17.180;2023-07-31T03:40:26;7.30;;;3.20;;
47912;SDS011;33676;51.006;17.180;2023-07-31T03:42:55;6.90;;;3.40;;
47912;SDS011;33676;51.006;17.180;2023-07-31T03:45:23;5.90;;;3.30;;
47912;SDS011;33676;51.006;17.180;2023-07-31T03:47:51;5.20;;;2.70;;
47912;SDS011;33676;51.006;17.180;2023-07-31T03:50:20;3.80;;;2.60;;
47912;SDS011;33676;51.006;17.180;2023-07-31T03:52:48;4.10;;;3.30;;
47912;SDS011;33676;51.006;17.180;2023-07-31T03:55:17;3.90;;;2.80;;
47912;SDS011;33676;51.006;17.180;2023-07-31T03:57:46;5.80;;;2.80;;
47912;SDS011;33676;51.006;17.180;2023-07-31T04:00:14;5.50;;;3.60;;
47912;SDS011;33676;51.006;17.180;2023-07-31T04:02:43;2.80;;;2.60;;
47912;SDS011;33676;51.006;17.180;2023-07-31T04:05:12;3.60;;;2.90;;
47912;SDS011;33676;51.006;17.180;2023-07-31T04:07:40;3.50;;;2.90;;
47912;SDS011;33676;51.006;17.180;2023-07-31T04:10:09;8.40;;;3.20;;
47912;SDS011;33676;51.006;17.180;2023-07-31T04:12:40;2.40;;;2.20;;
47912;SDS011;33676;51.006;17.180;2023-07-31T04:15:09;3.00;;;2.70;;
47912;SDS011;33676;51.006;17.180;2023-07-31T04:17:38;3.40;;;3.10;;
47912;SDS011;33676;51.006;17.180;2023-07-31T04:20:06;3.30;;;3.10;;
47912;SDS011;33676;51.006;17.180;2023-07-31T04:22:35;4.70;;;4.20;;
47912;SDS011;33676;51.006;17.180;2023-07-31T04:25:04;3.60;;;3.30;;
47912;SDS011;33676;51.006;17.180;2023-07-31T04:27:32;4.30;;;3.40;;
47912;SDS011;33676;51.006;17.180;2023-07-31T04:30:01;6.30;;;4.10;;
47912;SDS011;33676;51.006;17.180;2023-07-31T04:32:29;5.20;;;3.60;;
47912;SDS011;33676;51.006;17.180;2023-07-31T04:34:57;6.00;;;3.70;;
47912;SDS011;33676;51.006;17.180;2023-07-31T04:37:26;5.50;;;4.00;;
47912;SDS011;33676;51.006;17.180;2023-07-31T04:39:54;7.40;;;3.70;;
47912;SDS011;33676;51.006;17.180;2023-07-31T04:42:23;5.50;;;3.60;;
47912;SDS011;33676;51.006;17.180;2023-07-31T04:44:51;4.00;;;3.30;;
47912;SDS011;33676;51.006;17.180;2023-07-31T04:47:21;6.60;;;3.40;;
47912;SDS011;33676;51.006;17.180;2023-07-31T04:49:49;4.50;;;4.00;;
47912;SDS011;33676;51.006;17.180;2023-07-31T04:52:17;4.30;;;3.60;;
47912;SDS011;33676;51.006;17.180;2023-07-31T04:54:46;4.80;;;3.40;;
47912;SDS011;33676;51.006;17.180;2023-07-31T04:57:14;6.60;;;3.50;;
47912;SDS011;33676;51.006;17.180;2023-07-31T04:59:43;5.90;;;3.60;;
47912;SDS011;33676;51.006;17.180;2023-07-31T05:02:12;3.60;;;3.30;;
47912;SDS011;33676;51.006;17.180;2023-07-31T05:04:41;3.20;;;2.80;;
47912;SDS011;33676;51.006;17.180;2023-07-31T05:07:09;3.10;;;2.50;;
47912;SDS011;33676;51.006;17.180;2023-07-31T05:09:38;7.60;;;2.60;;
47912;SDS011;33676;51.006;17.180;2023-07-31T05:12:07;4.50;;;2.80;;
47912;SDS011;33676;51.006;17.180;2023-07-31T05:14:36;4.60;;;2.10;;
47912;SDS011;33676;51.006;17.180;2023-07-31T05:17:04;3.40;;;2.00;;
47912;SDS011;33676;51.006;17.180;2023-07-31T05:19:33;2.30;;;2.00;;
47912;SDS011;33676;51.006;17.180;2023-07-31T05:22:02;3.90;;;2.40;;
47912;SDS011;33676;51.006;17.180;2023-07-31T05:24:30;5.50;;;2.60;;
47912;SDS011;33676;51.006;17.180;2023-07-31T05:30:00;3.20;;;2.40;;
47912;SDS011;33676;51.006;17.180;2023-07-31T05:32:29;2.60;;;2.10;;
47912;SDS011;33676;51.006;17.180;2023-07-31T05:34:57;4.80;;;2.20;;
47912;SDS011;33676;51.006;17.180;2023-07-31T05:37:26;2.50;;;2.30;;
47912;SDS011;33676;51.006;17.180;2023-07-31T05:39:54;2.80;;;1.80;;
47912;SDS011;33676;51.006;17.180;2023-07-31T05:42:23;5.60;;;2.50;;
47912;SDS011;33676;51.006;17.180;2023-07-31T05:44:51;4.90;;;2.50;;
47912;SDS011;33676;51.006;17.180;2023-07-31T05:47:19;2.30;;;2.00;;
47912;SDS011;33676;51.006;17.180;2023-07-31T05:49:48;4.50;;;1.90;;
47912;SDS011;33676;51.006;17.180;2023-07-31T05:52:19;4.90;;;2.60;;
47912;SDS011;33676;51.006;17.180;2023-07-31T05:54:48;2.00;;;1.80;;
47912;SDS011;33676;51.006;17.180;2023-07-31T05:57:41;2.40;;;1.90;;
47912;SDS011;33676;51.006;17.180;2023-07-31T06:00:13;2.60;;;1.50;;
47912;SDS011;33676;51.006;17.180;2023-07-31T06:02:41;5.00;;;2.10;;
47912;SDS011;33676;51.006;17.180;2023-07-31T06:05:10;2.60;;;2.20;;
47912;SDS011;33676;51.006;17.180;2023-07-31T06:07:39;3.20;;;1.80;;
47912;SDS011;33676;51.006;17.180;2023-07-31T06:10:07;2.20;;;1.60;;
47912;SDS011;33676;51.006;17.180;2023-07-31T06:12:36;3.40;;;2.00;;
47912;SDS011;33676;51.006;17.180;2023-07-31T06:15:05;5.50;;;2.10;;
47912;SDS011;33676;51.006;17.180;2023-07-31T06:17:33;4.70;;;2.00;;
47912;SDS011;33676;51.006;17.180;2023-07-31T06:20:02;2.20;;;1.80;;
47912;SDS011;33676;51.006;17.180;2023-07-31T06:22:33;5.50;;;1.90;;
47912;SDS011;33676;51.006;17.180;2023-07-31T06:25:01;2.80;;;1.60;;
47912;SDS011;33676;51.006;17.180;2023-07-31T06:27:30;2.00;;;1.70;;
47912;SDS011;33676;51.006;17.180;2023-07-31T06:29:58;2.50;;;2.00;;
47912;SDS011;33676;51.006;17.180;2023-07-31T06:32:26;3.40;;;1.90;;
47912;SDS011;33676;51.006;17.180;2023-07-31T06:34:55;7.00;;;4.10;;
47912;SDS011;33676;51.006;17.180;2023-07-31T06:37:23;3.70;;;2.10;;
47912;SDS011;33676;51.006;17.180;2023-07-31T06:39:52;4.30;;;2.00;;
47912;SDS011;33676;51.006;17.180;2023-07-31T06:42:21;2.20;;;2.00;;
47912;SDS011;33676;51.006;17.180;2023-07-31T06:44:49;2.80;;;2.50;;
47912;SDS011;33676;51.006;17.180;2023-07-31T06:47:18;3.20;;;1.90;;
47912;SDS011;33676;51.006;17.180;2023-07-31T06:49:46;2.90;;;2.10;;
47912;SDS011;33676;51.006;17.180;2023-07-31T06:52:15;6.50;;;1.90;;
47912;SDS011;33676;51.006;17.180;2023-07-31T06:54:43;3.50;;;2.40;;
47912;SDS011;33676;51.006;17.180;2023-07-31T06:57:11;2.40;;;1.90;;
47912;SDS011;33676;51.006;17.180;2023-07-31T06:59:40;2.60;;;1.60;;
47912;SDS011;33676;51.006;17.180;2023-07-31T07:02:08;3.30;;;2.10;;
47912;SDS011;33676;51.006;17.180;2023-07-31T07:04:37;2.50;;;1.70;;
47912;SDS011;33676;51.006;17.180;2023-07-31T07:07:05;4.10;;;2.00;;
47912;SDS011;33676;51.006;17.180;2023-07-31T07:09:33;2.20;;;2.00;;
47912;SDS011;33676;51.006;17.180;2023-07-31T07:12:02;2.10;;;1.70;;
47912;SDS011;33676;51.006;17.180;2023-07-31T07:14:30;6.20;;;1.70;;
47912;SDS011;33676;51.006;17.180;2023-07-31T07:16:59;4.90;;;1.90;;
47912;SDS011;33676;51.006;17.180;2023-07-31T07:19:27;2.40;;;1.50;;
47912;SDS011;33676;51.006;17.180;2023-07-31T07:21:56;3.10;;;1.80;;
47912;SDS011;33676;51.006;17.180;2023-07-31T07:24:24;3.00;;;2.20;;
47912;SDS011;33676;51.006;17.180;2023-07-31T07:26:52;4.10;;;1.90;;
47912;SDS011;33676;51.006;17.180;2023-07-31T07:29:21;2.60;;;1.70;;
47912;SDS011;33676;51.006;17.180;2023-07-31T07:31:50;2.50;;;2.00;;
47912;SDS011;33676;51.006;17.180;2023-07-31T07:34:18;1.90;;;1.80;;
47912;SDS011;33676;51.006;17.180;2023-07-31T07:36:46;3.90;;;2.00;;
47912;SDS011;33676;51.006;17.180;2023-07-31T07:39:15;5.60;;;2.20;;
47912;SDS011;33676;51.006;17.180;2023-07-31T07:41:50;1.80;;;1.70;;
47912;SDS011;33676;51.006;17.180;2023-07-31T07:44:19;3.70;;;2.10;;
47912;SDS011;33676;51.006;17.180;2023-07-31T07:46:56;4.60;;;1.90;;
47912;SDS011;33676;51.006;17.180;2023-07-31T07:49:25;6.70;;;2.90;;
47912;SDS011;33676;51.006;17.180;2023-07-31T07:51:54;1.90;;;1.80;;
47912;SDS011;33676;51.006;17.180;2023-07-31T07:54:23;9.50;;;3.30;;
47912;SDS011;33676;51.006;17.180;2023-07-31T07:56:51;5.90;;;2.50;;
47912;SDS011;33676;51.006;17.180;2023-07-31T07:59:20;3.10;;;2.00;;
47912;SDS011;33676;51.006;17.180;2023-07-31T08:01:48;2.70;;;1.90;;
47912;SDS011;33676;51.006;17.180;2023-07-31T08:04:18;3.10;;;1.60;;
47912;SDS011;33676;51.006;17.180;2023-07-31T08:06:51;3.30;;;2.10;;
47912;SDS011;33676;51.006;17.180;2023-07-31T08:09:19;2.20;;;1.60;;
47912;SDS011;33676;51.006;17.180;2023-07-31T08:11:48;4.10;;;1.80;;
47912;SDS011;33676;51.006;17.180;2023-07-31T08:14:16;2.70;;;2.00;;
47912;SDS011;33676;51.006;17.180;2023-07-31T08:16:44;6.40;;;2.50;;
47912;SDS011;33676;51.006;17.180;2023-07-31T08:19:14;5.50;;;1.60;;
47912;SDS011;33676;51.006;17.180;2023-07-31T08:21:42;2.50;;;1.90;;
47912;SDS011;33676;51.006;17.180;2023-07-31T08:24:11;2.70;;;1.80;;
47912;SDS011;33676;51.006;17.180;2023-07-31T08:26:39;2.80;;;1.90;;
47912;SDS011;33676;51.006;17.180;2023-07-31T08:29:10;5.50;;;1.60;;
47912;SDS011;33676;51.006;17.180;2023-07-31T08:31:38;1.90;;;1.80;;
47912;SDS011;33676;51.006;17.180;2023-07-31T08:34:06;5.70;;;1.80;;
47912;SDS011;33676;51.006;17.180;2023-07-31T08:36:35;1.90;;;1.70;;
47912;SDS011;33676;51.006;17.180;2023-07-31T08:39:03;2.90;;;2.00;;
47912;SDS011;33676;51.006;17.180;2023-07-31T08:41:38;5.20;;;1.80;;
47912;SDS011;33676;51.006;17.180;2023-07-31T08:44:10;2.30;;;1.50;;
47912;SDS011;33676;51.006;17.180;2023-07-31T08:46:39;4.60;;;1.80;;
47912;SDS011;33676;51.006;17.180;2023-07-31T08:49:10;2.00;;;1.80;;
47912;SDS011;33676;51.006;17.180;2023-07-31T08:51:39;2.80;;;1.70;;
47912;SDS011;33676;51.006;17.180;2023-07-31T08:54:09;3.70;;;1.60;;
47912;SDS011;33676;51.006;17.180;2023-07-31T08:56:37;3.70;;;1.90;;
47912;SDS011;33676;51.006;17.180;2023-07-31T08:59:09;1.70;;;1.50;;
47912;SDS011;33676;51.006;17.180;2023-07-31T09:01:42;2.00;;;1.90;;
47912;SDS011;33676;51.006;17.180;2023-07-31T09:04:17;1.90;;;1.60;;
47912;SDS011;33676;51.006;17.180;2023-07-31T09:06:48;3.20;;;2.90;;
47912;SDS011;33676;51.006;17.180;2023-07-31T09:09:17;1.90;;;1.80;;
47912;SDS011;33676;51.006;17.180;2023-07-31T09:11:45;4.00;;;1.70;;
47912;SDS011;33676;51.006;17.180;2023-07-31T09:14:14;4.40;;;2.60;;
47912;SDS011;33676;51.006;17.180;2023-07-31T09:16:57;2.50;;;2.00;;
47912;SDS011;33676;51.006;17.180;2023-07-31T09:19:35;1.90;;;1.70;;
47912;SDS011;33676;51.006;17.180;2023-07-31T09:22:07;3.20;;;1.80;;
47912;SDS011;33676;51.006;17.180;2023-07-31T09:24:35;1.70;;;1.60;;
47912;SDS011;33676;51.006;17.180;2023-07-31T09:27:05;7.40;;;2.10;;
47912;SDS011;33676;51.006;17.180;2023-07-31T09:29:34;3.40;;;1.90;;
47912;SDS011;33676;51.006;17.180;2023-07-31T09:32:02;2.40;;;1.80;;
47912;SDS011;33676;51.006;17.180;2023-07-31T09:34:38;4.00;;;2.00;;
47912;SDS011;33676;51.006;17.180;2023-07-31T09:37:10;12.50;;;3.00;;
47912;SDS011;33676;51.006;17.180;2023-07-31T09:39:47;3.50;;;2.50;;
47912;SDS011;33676;51.006;17.180;2023-07-31T09:42:24;2.80;;;2.00;;
47912;SDS011;33676;51.006;17.180;2023-07-31T09:44:54;1.70;;;1.60;;
47912;SDS011;33676;51.006;17.180;2023-07-31T09:47:36;4.00;;;2.30;;
47912;SDS011;33676;51.006;17.180;2023-07-31T09:50:07;1.90;;;1.50;;
47912;SDS011;33676;51.006;17.180;2023-07-31T09:52:38;1.90;;;1.60;;
47912;SDS011;33676;51.006;17.180;2023-07-31T09:55:08;3.30;;;2.20;;
47912;SDS011;33676;51.006;17.180;2023-07-31T09:57:45;2.80;;;2.40;;
47912;SDS011;33676;51.006;17.180;2023-07-31T10:00:16;2.30;;;2.00;;
47912;SDS011;33676;51.006;17.180;2023-07-31T10:02:50;2.40;;;2.10;;
47912;SDS011;33676;51.006;17.180;2023-07-31T10:05:22;3.90;;;1.80;;
47912;SDS011;33676;51.006;17.180;2023-07-31T10:07:53;4.30;;;1.80;;
47912;SDS011;33676;51.006;17.180;2023-07-31T10:10:24;1.80;;;1.70;;
47912;SDS011;33676;51.006;17.180;2023-07-31T10:12:55;2.10;;;1.70;;
47912;SDS011;33676;51.006;17.180;2023-07-31T10:15:25;2.70;;;1.60;;
47912;SDS011;33676;51.006;17.180;2023-07-31T10:17:55;2.30;;;2.20;;
47912;SDS011;33676;51.006;17.180;2023-07-31T10:20:24;3.90;;;2.00;;
47912;SDS011;33676;51.006;17.180;2023-07-31T10:22:56;2.00;;;1.90;;
47912;SDS011;33676;51.006;17.180;2023-07-31T10:25:28;2.00;;;1.90;;
47912;SDS011;33676;51.006;17.180;2023-07-31T10:27:57;3.90;;;2.20;;
47912;SDS011;33676;51.006;17.180;2023-07-31T10:30:30;2.10;;;1.70;;
47912;SDS011;33676;51.006;17.180;2023-07-31T10:35:31;2.00;;;1.80;;
47912;SDS011;33676;51.006;17.180;2023-07-31T10:38:10;2.50;;;2.30;;
47912;SDS011;33676;51.006;17.180;2023-07-31T10:40:42;2.70;;;1.90;;
47912;SDS011;33676;51.006;17.180;2023-07-31T10:43:10;1.20;;;1.10;;
47912;SDS011;33676;51.006;17.180;2023-07-31T10:45:56;2.90;;;1.20;;
47912;SDS011;33676;51.006;17.180;2023-07-31T10:48:24;1.40;;;1.30;;
47912;SDS011;33676;51.006;17.180;2023-07-31T10:51:01;2.50;;;1.20;;
47912;SDS011;33676;51.006;17.180;2023-07-31T10:53:36;1.20;;;1.20;;
47912;SDS011;33676;51.006;17.180;2023-07-31T10:56:07;1.10;;;1.10;;
47912;SDS011;33676;51.006;17.180;2023-07-31T10:58:37;3.10;;;1.50;;
47912;SDS011;33676;51.006;17.180;2023-07-31T11:01:06;1.70;;;1.20;;
47912;SDS011;33676;51.006;17.180;2023-07-31T11:03:46;1.40;;;1.30;;
47912;SDS011;33676;51.006;17.180;2023-07-31T11:06:22;1.70;;;1.60;;
47912;SDS011;33676;51.006;17.180;2023-07-31T11:08:51;2.00;;;1.80;;
47912;SDS011;33676;51.006;17.180;2023-07-31T11:11:20;2.40;;;2.20;;
47912;SDS011;33676;51.006;17.180;2023-07-31T11:13:50;3.40;;;1.80;;
47912;SDS011;33676;51.006;17.180;2023-07-31T11:16:24;2.30;;;1.50;;
47912;SDS011;33676;51.006;17.180;2023-07-31T11:18:53;3.00;;;1.90;;
47912;SDS011;33676;51.006;17.180;2023-07-31T11:21:24;3.10;;;1.90;;
47912;SDS011;33676;51.006;17.180;2023-07-31T11:23:56;1.90;;;1.80;;
47912;SDS011;33676;51.006;17.180;2023-07-31T11:26:28;5.20;;;2.00;;
47912;SDS011;33676;51.006;17.180;2023-07-31T11:28:59;1.90;;;1.80;;
47912;SDS011;33676;51.006;17.180;2023-07-31T11:31:27;5.10;;;2.20;;
47912;SDS011;33676;51.006;17.180;2023-07-31T11:34:06;2.10;;;2.00;;
47912;SDS011;33676;51.006;17.180;2023-07-31T11:36:34;2.20;;;2.00;;
47912;SDS011;33676;51.006;17.180;2023-07-31T11:39:09;2.70;;;1.70;;
47912;SDS011;33676;51.006;17.180;2023-07-31T11:41:42;2.10;;;1.90;;
47912;SDS011;33676;51.006;17.180;2023-07-31T11:44:11;1.70;;;1.60;;
47912;SDS011;33676;51.006;17.180;2023-07-31T11:46:52;1.80;;;1.70;;
47912;SDS011;33676;51.006;17.180;2023-07-31T11:49:25;2.00;;;1.90;;
47912;SDS011;33676;51.006;17.180;2023-07-31T11:51:54;2.10;;;1.90;;
47912;SDS011;33676;51.006;17.180;2023-07-31T11:54:23;1.80;;;1.70;;
47912;SDS011;33676;51.006;17.180;2023-07-31T11:56:54;2.30;;;2.10;;
47912;SDS011;33676;51.006;17.180;2023-07-31T11:59:26;2.20;;;2.00;;
47912;SDS011;33676;51.006;17.180;2023-07-31T12:01:55;2.10;;;2.00;;
47912;SDS011;33676;51.006;17.180;2023-07-31T12:04:26;1.90;;;1.70;;
47912;SDS011;33676;51.006;17.180;2023-07-31T12:06:55;2.70;;;1.40;;
47912;SDS011;33676;51.006;17.180;2023-07-31T12:09:26;3.20;;;2.50;;
47912;SDS011;33676;51.006;17.180;2023-07-31T12:11:55;1.90;;;1.80;;
47912;SDS011;33676;51.006;17.180;2023-07-31T12:14:24;2.40;;;2.30;;
47912;SDS011;33676;51.006;17.180;2023-07-31T12:16:58;2.80;;;2.10;;
47912;SDS011;33676;51.006;17.180;2023-07-31T12:19:32;2.10;;;2.00;;
47912;SDS011;33676;51.006;17.180;2023-07-31T12:22:11;2.30;;;1.80;;
47912;SDS011;33676;51.006;17.180;2023-07-31T12:24:42;2.20;;;2.10;;
47912;SDS011;33676;51.006;17.180;2023-07-31T12:27:15;2.40;;;2.20;;
47912;SDS011;33676;51.006;17.180;2023-07-31T12:29:44;1.90;;;1.70;;
47912;SDS011;33676;51.006;17.180;2023-07-31T12:32:22;2.20;;;2.00;;
47912;SDS011;33676;51.006;17.180;2023-07-31T12:34:59;1.80;;;1.70;;
47912;SDS011;33676;51.006;17.180;2023-07-31T12:37:29;1.70;;;1.60;;
47912;SDS011;33676;51.006;17.180;2023-07-31T12:39:57;3.00;;;2.50;;
47912;SDS011;33676;51.006;17.180;2023-07-31T12:42:35;2.20;;;2.10;;
47912;SDS011;33676;51.006;17.180;2023-07-31T12:45:04;2.50;;;2.40;;
47912;SDS011;33676;51.006;17.180;2023-07-31T12:47:33;1.90;;;1.80;;
47912;SDS011;33676;51.006;17.180;2023-07-31T12:50:01;3.10;;;2.70;;
47912;SDS011;33676;51.006;17.180;2023-07-31T12:52:30;2.40;;;2.00;;
47912;SDS011;33676;51.006;17.180;2023-07-31T12:54:58;2.40;;;2.20;;
47912;SDS011;33676;51.006;17.180;2023-07-31T12:57:26;4.10;;;2.40;;
47912;SDS011;33676;51.006;17.180;2023-07-31T12:59:55;2.20;;;2.10;;
47912;SDS011;33676;51.006;17.180;2023-07-31T13:02:23;3.10;;;2.70;;
47912;SDS011;33676;51.006;17.180;2023-07-31T13:04:53;2.60;;;2.40;;
47912;SDS011;33676;51.006;17.180;2023-07-31T13:07:22;3.00;;;2.30;;
47912;SDS011;33676;51.006;17.180;2023-07-31T13:09:51;2.60;;;2.20;;
47912;SDS011;33676;51.006;17.180;2023-07-31T13:12:19;4.70;;;2.70;;
47912;SDS011;33676;51.006;17.180;2023-07-31T13:14:47;3.40;;;2.80;;
47912;SDS011;33676;51.006;17.180;2023-07-31T13:17:19;2.90;;;2.40;;
47912;SDS011;33676;51.006;17.180;2023-07-31T13:19:47;2.00;;;1.90;;
47912;SDS011;33676;51.006;17.180;2023-07-31T13:22:15;2.20;;;2.10;;
47912;SDS011;33676;51.006;17.180;2023-07-31T13:24:44;4.20;;;2.60;;
47912;SDS011;33676;51.006;17.180;2023-07-31T13:27:12;2.70;;;2.50;;
47912;SDS011;33676;51.006;17.180;2023-07-31T13:29:41;2.90;;;2.10;;
47912;SDS011;33676;51.006;17.180;2023-07-31T13:32:09;3.00;;;2.70;;
47912;SDS011;33676;51.006;17.180;2023-07-31T13:34:37;2.00;;;1.90;;
47912;SDS011;33676;51.006;17.180;2023-07-31T13:37:06;2.50;;;2.40;;
47912;SDS011;33676;51.006;17.180;2023-07-31T13:39:35;2.20;;;2.00;;
47912;SDS011;33676;51.006;17.180;2023-07-31T13:42:04;3.30;;;2.30;;
47912;SDS011;33676;51.006;17.180;2023-07-31T13:44:36;2.90;;;2.70;;
47912;SDS011;33676;51.006;17.180;2023-07-31T13:47:04;2.20;;;2.00;;
47912;SDS011;33676;51.006;17.180;2023-07-31T13:49:33;1.90;;;1.80;;
47912;SDS011;33676;51.006;17.180;2023-07-31T13:52:04;2.70;;;2.50;;
47912;SDS011;33676;51.006;17.180;2023-07-31T13:54:33;2.00;;;1.90;;
47912;SDS011;33676;51.006;17.180;2023-07-31T13:57:01;2.30;;;2.10;;
47912;SDS011;33676;51.006;17.180;2023-07-31T13:59:31;2.10;;;2.00;;
47912;SDS011;33676;51.006;17.180;2023-07-31T14:01:59;2.80;;;2.60;;
47912;SDS011;33676;51.006;17.180;2023-07-31T14:04:27;20.40;;;5.20;;
47912;SDS011;33676;51.006;17.180;2023-07-31T14:06:56;5.10;;;3.10;;
47912;SDS011;33676;51.006;17.180;2023-07-31T14:09:25;5.10;;;2.80;;
47912;SDS011;33676;51.006;17.180;2023-07-31T14:11:54;2.70;;;2.50;;
47912;SDS011;33676;51.006;17.180;2023-07-31T14:14:22;3.40;;;2.80;;
47912;SDS011;33676;51.006;17.180;2023-07-31T14:16:51;2.00;;;1.90;;
47912;SDS011;33676;51.006;17.180;2023-07-31T14:19:19;3.20;;;2.60;;
47912;SDS011;33676;51.006;17.180;2023-07-31T14:21:49;3.10;;;2.80;;
47912;SDS011;33676;51.006;17.180;2023-07-31T14:25:43;4.70;;;2.50;;
47912;SDS011;33676;51.006;17.180;2023-07-31T14:28:12;3.00;;;2.70;;
47912;SDS011;33676;51.006;17.180;2023-07-31T14:30:41;1.60;;;1.60;;
47912;SDS011;33676;51.006;17.180;2023-07-31T14:40:58;2.80;;;2.40;;
47912;SDS011;33676;51.006;17.180;2023-07-31T14:43:26;2.70;;;2.40;;
47912;SDS011;33676;51.006;17.180;2023-07-31T14:45:55;1.70;;;1.60;;
47912;SDS011;33676;51.006;17.180;2023-07-31T14:48:28;2.40;;;2.30;;
47912;SDS011;33676;51.006;17.180;2023-07-31T14:50:57;2.80;;;2.40;;
47912;SDS011;33676;51.006;17.180;2023-07-31T14:53:25;3.40;;;2.70;;
47912;SDS011;33676;51.006;17.180;2023-07-31T14:55:54;2.20;;;2.00;;
47912;SDS011;33676;51.006;17.180;2023-07-31T14:58:23;2.20;;;2.10;;
47912;SDS011;33676;51.006;17.180;2023-07-31T15:00:52;4.60;;;3.30;;
47912;SDS011;33676;51.006;17.180;2023-07-31T15:03:21;2.50;;;2.30;;
47912;SDS011;33676;51.006;17.180;2023-07-31T15:05:49;2.50;;;2.30;;
47912;SDS011;33676;51.006;17.180;2023-07-31T15:08:18;2.50;;;2.40;;
47912;SDS011;33676;51.006;17.180;2023-07-31T15:10:47;4.90;;;2.90;;
47912;SDS011;33676;51.006;17.180;2023-07-31T15:13:15;2.50;;;2.40;;
47912;SDS011;33676;51.006;17.180;2023-07-31T15:15:44;2.50;;;2.30;;